Spring Valley Estates, Indiana
Current Conditions -  °F | °C
As of 8:53 AM on Friday 24 Oct 2014 (Local Time) from KHUF Reporting Station
Haze Haze  
Wind Chill: 48°   Ceiling: 2900
Heat Index: 48°   Visibility: 6mi
Dew Point: 46°   Wind: 3mph
Humidity: 93%   Direction: 140°SE
Pressure: 30.11"   Gusts: NA
Location:  39.3587°N, 87.4056°W
Report Text: KHUF 241253Z 14003KT 6SM BR OVC029 09/08 A3011 RMK AO2 SLP199 T00890078
Loading
Personal Weather Stations






























Interactive Weather Map
Tropical Storm Tracking
New forecast layout! Learn more

10-Day Weather Forecast

Advertisements
Track Severe Weather on mobile